sensor_id;sensor_type;location;lat;lon;timestamp;P1;durP1;ratioP1;P2;durP2;ratioP2
20138;SDS011;10230;51.502;10.800;2023-03-12T00:00:45;4.67;;;2.67;;
20138;SDS011;10230;51.502;10.800;2023-03-12T00:03:12;6.40;;;2.83;;
20138;SDS011;10230;51.502;10.800;2023-03-12T00:05:38;5.17;;;3.10;;
20138;SDS011;10230;51.502;10.800;2023-03-12T00:08:05;5.83;;;2.47;;
20138;SDS011;10230;51.502;10.800;2023-03-12T00:10:31;2.90;;;2.10;;
20138;SDS011;10230;51.502;10.800;2023-03-12T00:12:57;3.60;;;2.50;;
20138;SDS011;10230;51.502;10.800;2023-03-12T00:15:23;6.93;;;2.23;;
20138;SDS011;10230;51.502;10.800;2023-03-12T00:17:49;3.63;;;2.00;;
20138;SDS011;10230;51.502;10.800;2023-03-12T00:20:15;4.73;;;2.03;;
20138;SDS011;10230;51.502;10.800;2023-03-12T00:22:41;3.47;;;1.87;;
20138;SDS011;10230;51.502;10.800;2023-03-12T00:25:11;3.97;;;1.90;;
20138;SDS011;10230;51.502;10.800;2023-03-12T00:27:38;2.27;;;1.43;;
20138;SDS011;10230;51.502;10.800;2023-03-12T00:30:04;4.67;;;2.63;;
20138;SDS011;10230;51.502;10.800;2023-03-12T00:32:33;4.37;;;1.73;;
20138;SDS011;10230;51.502;10.800;2023-03-12T00:35:00;3.33;;;1.93;;
20138;SDS011;10230;51.502;10.800;2023-03-12T00:37:26;5.80;;;1.80;;
20138;SDS011;10230;51.502;10.800;2023-03-12T00:39:52;6.67;;;2.87;;
20138;SDS011;10230;51.502;10.800;2023-03-12T00:42:18;7.40;;;3.00;;
20138;SDS011;10230;51.502;10.800;2023-03-12T00:44:44;4.33;;;2.47;;
20138;SDS011;10230;51.502;10.800;2023-03-12T00:47:10;4.23;;;2.60;;
20138;SDS011;10230;51.502;10.800;2023-03-12T00:49:36;6.30;;;1.90;;
20138;SDS011;10230;51.502;10.800;2023-03-12T00:52:03;5.23;;;2.17;;
20138;SDS011;10230;51.502;10.800;2023-03-12T00:54:29;3.43;;;1.70;;
20138;SDS011;10230;51.502;10.800;2023-03-12T00:56:55;3.27;;;1.40;;
20138;SDS011;10230;51.502;10.800;2023-03-12T00:59:21;5.03;;;1.73;;
20138;SDS011;10230;51.502;10.800;2023-03-12T01:01:47;5.23;;;1.90;;
20138;SDS011;10230;51.502;10.800;2023-03-12T01:04:13;2.53;;;1.17;;
20138;SDS011;10230;51.502;10.800;2023-03-12T01:06:39;2.47;;;1.33;;
20138;SDS011;10230;51.502;10.800;2023-03-12T01:09:05;3.60;;;1.37;;
20138;SDS011;10230;51.502;10.800;2023-03-12T01:11:32;4.63;;;1.97;;
20138;SDS011;10230;51.502;10.800;2023-03-12T01:13:59;4.27;;;1.87;;
20138;SDS011;10230;51.502;10.800;2023-03-12T01:16:26;3.23;;;1.73;;
20138;SDS011;10230;51.502;10.800;2023-03-12T01:18:54;3.43;;;1.50;;
20138;SDS011;10230;51.502;10.800;2023-03-12T01:21:20;1.43;;;1.10;;
20138;SDS011;10230;51.502;10.800;2023-03-12T01:23:46;3.60;;;1.43;;
20138;SDS011;10230;51.502;10.800;2023-03-12T01:26:12;2.00;;;1.20;;
20138;SDS011;10230;51.502;10.800;2023-03-12T01:28:38;2.90;;;1.30;;
20138;SDS011;10230;51.502;10.800;2023-03-12T01:31:08;3.90;;;1.67;;
20138;SDS011;10230;51.502;10.800;2023-03-12T01:33:35;2.30;;;1.30;;
20138;SDS011;10230;51.502;10.800;2023-03-12T01:36:01;3.07;;;1.90;;
20138;SDS011;10230;51.502;10.800;2023-03-12T01:38:27;3.33;;;1.53;;
20138;SDS011;10230;51.502;10.800;2023-03-12T01:40:53;2.07;;;1.53;;
20138;SDS011;10230;51.502;10.800;2023-03-12T01:45:55;1.87;;;1.30;;
20138;SDS011;10230;51.502;10.800;2023-03-12T01:48:24;3.13;;;1.50;;
20138;SDS011;10230;51.502;10.800;2023-03-12T01:50:52;2.40;;;1.70;;
20138;SDS011;10230;51.502;10.800;2023-03-12T01:53:18;2.47;;;1.20;;
20138;SDS011;10230;51.502;10.800;2023-03-12T01:55:44;4.90;;;1.07;;
20138;SDS011;10230;51.502;10.800;2023-03-12T01:58:10;3.93;;;1.70;;
20138;SDS011;10230;51.502;10.800;2023-03-12T02:00:36;4.10;;;2.23;;
20138;SDS011;10230;51.502;10.800;2023-03-12T02:03:03;3.10;;;1.80;;
20138;SDS011;10230;51.502;10.800;2023-03-12T02:05:40;2.07;;;1.77;;
20138;SDS011;10230;51.502;10.800;2023-03-12T02:08:08;2.30;;;1.43;;
20138;SDS011;10230;51.502;10.800;2023-03-12T02:10:35;3.73;;;1.20;;
20138;SDS011;10230;51.502;10.800;2023-03-12T02:13:01;1.93;;;1.07;;
20138;SDS011;10230;51.502;10.800;2023-03-12T02:15:27;4.80;;;1.90;;
20138;SDS011;10230;51.502;10.800;2023-03-12T02:17:53;4.30;;;1.83;;
20138;SDS011;10230;51.502;10.800;2023-03-12T02:20:24;3.37;;;1.53;;
20138;SDS011;10230;51.502;10.800;2023-03-12T02:22:55;1.57;;;1.03;;
20138;SDS011;10230;51.502;10.800;2023-03-12T02:25:26;2.47;;;1.40;;
20138;SDS011;10230;51.502;10.800;2023-03-12T02:27:54;1.53;;;1.00;;
20138;SDS011;10230;51.502;10.800;2023-03-12T02:30:21;1.73;;;1.10;;
20138;SDS011;10230;51.502;10.800;2023-03-12T02:32:47;0.80;;;0.80;;
20138;SDS011;10230;51.502;10.800;2023-03-12T02:35:15;3.40;;;1.53;;
20138;SDS011;10230;51.502;10.800;2023-03-12T02:37:51;1.70;;;1.13;;
20138;SDS011;10230;51.502;10.800;2023-03-12T02:42:52;0.90;;;0.67;;
20138;SDS011;10230;51.502;10.800;2023-03-12T02:45:19;3.97;;;1.10;;
20138;SDS011;10230;51.502;10.800;2023-03-12T02:47:45;1.07;;;0.80;;
20138;SDS011;10230;51.502;10.800;2023-03-12T02:50:11;2.70;;;1.07;;
20138;SDS011;10230;51.502;10.800;2023-03-12T02:52:37;2.47;;;1.43;;
20138;SDS011;10230;51.502;10.800;2023-03-12T02:55:04;1.50;;;1.00;;
20138;SDS011;10230;51.502;10.800;2023-03-12T02:57:31;2.67;;;0.90;;
20138;SDS011;10230;51.502;10.800;2023-03-12T02:59:57;2.43;;;1.20;;
20138;SDS011;10230;51.502;10.800;2023-03-12T03:02:23;1.40;;;0.93;;
20138;SDS011;10230;51.502;10.800;2023-03-12T03:04:49;1.63;;;1.00;;
20138;SDS011;10230;51.502;10.800;2023-03-12T03:07:15;1.20;;;0.97;;
20138;SDS011;10230;51.502;10.800;2023-03-12T03:09:41;0.93;;;0.80;;
20138;SDS011;10230;51.502;10.800;2023-03-12T03:12:07;1.70;;;1.10;;
20138;SDS011;10230;51.502;10.800;2023-03-12T03:14:33;1.97;;;0.90;;
20138;SDS011;10230;51.502;10.800;2023-03-12T03:16:59;3.53;;;0.93;;
20138;SDS011;10230;51.502;10.800;2023-03-12T03:19:25;1.40;;;1.00;;
20138;SDS011;10230;51.502;10.800;2023-03-12T03:21:51;2.00;;;1.30;;
20138;SDS011;10230;51.502;10.800;2023-03-12T03:24:17;1.23;;;0.80;;
20138;SDS011;10230;51.502;10.800;2023-03-12T03:26:43;0.80;;;0.80;;
20138;SDS011;10230;51.502;10.800;2023-03-12T03:29:09;1.17;;;0.67;;
20138;SDS011;10230;51.502;10.800;2023-03-12T03:31:35;2.20;;;0.93;;
20138;SDS011;10230;51.502;10.800;2023-03-12T03:34:01;0.70;;;0.70;;
20138;SDS011;10230;51.502;10.800;2023-03-12T03:36:27;1.30;;;1.10;;
20138;SDS011;10230;51.502;10.800;2023-03-12T03:38:53;1.80;;;1.20;;
20138;SDS011;10230;51.502;10.800;2023-03-12T03:41:19;2.00;;;1.10;;
20138;SDS011;10230;51.502;10.800;2023-03-12T03:43:46;2.20;;;1.33;;
20138;SDS011;10230;51.502;10.800;2023-03-12T03:46:13;1.43;;;0.97;;
20138;SDS011;10230;51.502;10.800;2023-03-12T03:48:39;2.43;;;1.03;;
20138;SDS011;10230;51.502;10.800;2023-03-12T03:51:06;4.47;;;1.03;;
20138;SDS011;10230;51.502;10.800;2023-03-12T03:53:33;1.97;;;0.90;;
20138;SDS011;10230;51.502;10.800;2023-03-12T03:56:09;1.90;;;1.13;;
20138;SDS011;10230;51.502;10.800;2023-03-12T03:58:36;2.67;;;1.27;;
20138;SDS011;10230;51.502;10.800;2023-03-12T04:01:02;2.13;;;1.47;;
20138;SDS011;10230;51.502;10.800;2023-03-12T04:03:28;2.00;;;1.10;;
20138;SDS011;10230;51.502;10.800;2023-03-12T04:05:58;3.83;;;1.10;;
20138;SDS011;10230;51.502;10.800;2023-03-12T04:08:24;3.03;;;1.40;;
20138;SDS011;10230;51.502;10.800;2023-03-12T04:10:50;3.77;;;1.57;;
20138;SDS011;10230;51.502;10.800;2023-03-12T04:13:17;3.17;;;2.47;;
20138;SDS011;10230;51.502;10.800;2023-03-12T04:15:46;3.03;;;1.90;;
20138;SDS011;10230;51.502;10.800;2023-03-12T04:18:12;1.43;;;1.03;;
20138;SDS011;10230;51.502;10.800;2023-03-12T04:20:39;3.23;;;1.43;;
20138;SDS011;10230;51.502;10.800;2023-03-12T04:23:05;5.90;;;1.80;;
20138;SDS011;10230;51.502;10.800;2023-03-12T04:25:31;4.30;;;2.57;;
20138;SDS011;10230;51.502;10.800;2023-03-12T04:27:57;4.70;;;2.03;;
20138;SDS011;10230;51.502;10.800;2023-03-12T04:30:23;2.40;;;1.50;;
20138;SDS011;10230;51.502;10.800;2023-03-12T04:32:49;3.07;;;1.57;;
20138;SDS011;10230;51.502;10.800;2023-03-12T04:35:15;4.90;;;1.37;;
20138;SDS011;10230;51.502;10.800;2023-03-12T04:37:41;4.63;;;2.10;;
20138;SDS011;10230;51.502;10.800;2023-03-12T04:40:07;5.43;;;1.20;;
20138;SDS011;10230;51.502;10.800;2023-03-12T04:42:34;3.67;;;1.97;;
20138;SDS011;10230;51.502;10.800;2023-03-12T04:45:00;3.03;;;1.57;;
20138;SDS011;10230;51.502;10.800;2023-03-12T04:47:27;3.47;;;1.77;;
20138;SDS011;10230;51.502;10.800;2023-03-12T04:49:53;3.43;;;1.27;;
20138;SDS011;10230;51.502;10.800;2023-03-12T04:52:19;3.73;;;1.70;;
20138;SDS011;10230;51.502;10.800;2023-03-12T04:54:45;4.10;;;1.77;;
20138;SDS011;10230;51.502;10.800;2023-03-12T04:57:11;2.00;;;1.67;;
20138;SDS011;10230;51.502;10.800;2023-03-12T04:59:37;1.97;;;1.20;;
20138;SDS011;10230;51.502;10.800;2023-03-12T05:02:03;3.43;;;1.70;;
20138;SDS011;10230;51.502;10.800;2023-03-12T05:04:29;3.80;;;1.03;;
20138;SDS011;10230;51.502;10.800;2023-03-12T05:06:55;3.30;;;2.17;;
20138;SDS011;10230;51.502;10.800;2023-03-12T05:09:21;2.67;;;1.60;;
20138;SDS011;10230;51.502;10.800;2023-03-12T05:11:47;4.57;;;1.63;;
20138;SDS011;10230;51.502;10.800;2023-03-12T05:14:13;2.27;;;1.33;;
20138;SDS011;10230;51.502;10.800;2023-03-12T05:16:39;3.03;;;1.83;;
20138;SDS011;10230;51.502;10.800;2023-03-12T05:19:05;5.27;;;1.97;;
20138;SDS011;10230;51.502;10.800;2023-03-12T05:21:31;4.63;;;1.93;;
20138;SDS011;10230;51.502;10.800;2023-03-12T05:23:58;5.43;;;1.87;;
20138;SDS011;10230;51.502;10.800;2023-03-12T05:26:28;2.90;;;1.70;;
20138;SDS011;10230;51.502;10.800;2023-03-12T05:28:58;2.07;;;1.47;;
20138;SDS011;10230;51.502;10.800;2023-03-12T05:31:25;4.80;;;1.93;;
20138;SDS011;10230;51.502;10.800;2023-03-12T05:33:51;5.57;;;1.70;;
20138;SDS011;10230;51.502;10.800;2023-03-12T05:36:17;4.30;;;1.50;;
20138;SDS011;10230;51.502;10.800;2023-03-12T05:38:43;4.67;;;2.20;;
20138;SDS011;10230;51.502;10.800;2023-03-12T05:41:18;5.37;;;2.87;;
20138;SDS011;10230;51.502;10.800;2023-03-12T05:43:44;5.60;;;2.60;;
20138;SDS011;10230;51.502;10.800;2023-03-12T05:46:10;4.37;;;2.00;;
20138;SDS011;10230;51.502;10.800;2023-03-12T05:48:36;4.77;;;2.00;;
20138;SDS011;10230;51.502;10.800;2023-03-12T05:51:02;6.67;;;1.93;;
20138;SDS011;10230;51.502;10.800;2023-03-12T05:53:28;3.97;;;2.27;;
20138;SDS011;10230;51.502;10.800;2023-03-12T05:55:54;6.60;;;2.47;;
20138;SDS011;10230;51.502;10.800;2023-03-12T05:58:26;6.50;;;2.60;;
20138;SDS011;10230;51.502;10.800;2023-03-12T06:00:52;4.80;;;2.17;;
20138;SDS011;10230;51.502;10.800;2023-03-12T06:03:18;5.50;;;2.70;;
20138;SDS011;10230;51.502;10.800;2023-03-12T06:05:44;6.37;;;3.23;;
20138;SDS011;10230;51.502;10.800;2023-03-12T06:08:12;3.80;;;2.10;;
20138;SDS011;10230;51.502;10.800;2023-03-12T06:10:39;3.30;;;1.40;;
20138;SDS011;10230;51.502;10.800;2023-03-12T06:13:05;2.93;;;1.80;;
20138;SDS011;10230;51.502;10.800;2023-03-12T06:15:32;3.20;;;1.53;;
20138;SDS011;10230;51.502;10.800;2023-03-12T06:17:58;2.47;;;1.20;;
20138;SDS011;10230;51.502;10.800;2023-03-12T06:20:24;3.87;;;1.07;;
20138;SDS011;10230;51.502;10.800;2023-03-12T06:22:50;2.37;;;1.20;;
20138;SDS011;10230;51.502;10.800;2023-03-12T06:25:16;1.30;;;1.20;;
20138;SDS011;10230;51.502;10.800;2023-03-12T06:27:42;1.53;;;1.07;;
20138;SDS011;10230;51.502;10.800;2023-03-12T06:30:08;2.17;;;1.00;;
20138;SDS011;10230;51.502;10.800;2023-03-12T06:32:34;3.00;;;1.07;;
20138;SDS011;10230;51.502;10.800;2023-03-12T06:35:00;2.37;;;1.33;;
20138;SDS011;10230;51.502;10.800;2023-03-12T06:37:28;2.10;;;1.43;;
20138;SDS011;10230;51.502;10.800;2023-03-12T06:39:54;2.87;;;1.43;;
20138;SDS011;10230;51.502;10.800;2023-03-12T06:42:20;2.33;;;1.20;;
20138;SDS011;10230;51.502;10.800;2023-03-12T06:44:46;2.37;;;1.50;;
20138;SDS011;10230;51.502;10.800;2023-03-12T06:47:12;1.53;;;1.07;;
20138;SDS011;10230;51.502;10.800;2023-03-12T06:49:38;2.33;;;1.80;;
20138;SDS011;10230;51.502;10.800;2023-03-12T06:52:04;4.43;;;2.00;;
20138;SDS011;10230;51.502;10.800;2023-03-12T06:54:30;1.70;;;1.40;;
20138;SDS011;10230;51.502;10.800;2023-03-12T06:56:56;5.33;;;1.40;;
20138;SDS011;10230;51.502;10.800;2023-03-12T06:59:23;3.17;;;1.40;;
20138;SDS011;10230;51.502;10.800;2023-03-12T07:01:49;2.97;;;1.40;;
20138;SDS011;10230;51.502;10.800;2023-03-12T07:04:15;2.93;;;1.47;;
20138;SDS011;10230;51.502;10.800;2023-03-12T07:06:41;3.47;;;1.87;;
20138;SDS011;10230;51.502;10.800;2023-03-12T07:09:07;2.60;;;1.73;;
20138;SDS011;10230;51.502;10.800;2023-03-12T07:11:33;3.13;;;1.50;;
20138;SDS011;10230;51.502;10.800;2023-03-12T07:13:59;1.93;;;1.50;;
20138;SDS011;10230;51.502;10.800;2023-03-12T07:16:26;1.40;;;0.90;;
20138;SDS011;10230;51.502;10.800;2023-03-12T07:18:51;2.30;;;1.50;;
20138;SDS011;10230;51.502;10.800;2023-03-12T07:21:17;6.33;;;1.53;;
20138;SDS011;10230;51.502;10.800;2023-03-12T07:23:48;2.27;;;1.17;;
20138;SDS011;10230;51.502;10.800;2023-03-12T07:26:14;3.40;;;1.60;;
20138;SDS011;10230;51.502;10.800;2023-03-12T07:28:40;3.57;;;2.17;;
20138;SDS011;10230;51.502;10.800;2023-03-12T07:31:06;2.93;;;2.13;;
20138;SDS011;10230;51.502;10.800;2023-03-12T07:33:32;2.83;;;1.50;;
20138;SDS011;10230;51.502;10.800;2023-03-12T07:35:58;2.63;;;1.83;;
20138;SDS011;10230;51.502;10.800;2023-03-12T07:38:24;1.93;;;1.20;;
20138;SDS011;10230;51.502;10.800;2023-03-12T07:40:51;2.47;;;1.13;;
20138;SDS011;10230;51.502;10.800;2023-03-12T07:43:17;2.00;;;1.07;;
20138;SDS011;10230;51.502;10.800;2023-03-12T07:45:43;2.77;;;1.37;;
20138;SDS011;10230;51.502;10.800;2023-03-12T07:48:09;2.17;;;1.20;;
20138;SDS011;10230;51.502;10.800;2023-03-12T07:50:35;3.37;;;1.87;;
20138;SDS011;10230;51.502;10.800;2023-03-12T07:53:02;2.67;;;2.17;;
20138;SDS011;10230;51.502;10.800;2023-03-12T07:55:28;4.43;;;1.53;;
20138;SDS011;10230;51.502;10.800;2023-03-12T07:57:54;2.60;;;1.10;;
20138;SDS011;10230;51.502;10.800;2023-03-12T08:00:23;1.77;;;1.33;;
20138;SDS011;10230;51.502;10.800;2023-03-12T08:02:49;4.23;;;1.57;;
20138;SDS011;10230;51.502;10.800;2023-03-12T08:05:15;4.00;;;1.77;;
20138;SDS011;10230;51.502;10.800;2023-03-12T08:07:41;3.10;;;1.83;;
20138;SDS011;10230;51.502;10.800;2023-03-12T08:10:07;3.00;;;1.83;;
20138;SDS011;10230;51.502;10.800;2023-03-12T08:12:33;3.43;;;1.50;;
20138;SDS011;10230;51.502;10.800;2023-03-12T08:15:01;4.87;;;1.13;;
20138;SDS011;10230;51.502;10.800;2023-03-12T08:17:27;3.03;;;1.30;;
20138;SDS011;10230;51.502;10.800;2023-03-12T08:19:53;3.88;;;2.33;;
20138;SDS011;10230;51.502;10.800;2023-03-12T08:22:19;2.63;;;1.40;;
20138;SDS011;10230;51.502;10.800;2023-03-12T08:24:45;2.50;;;1.60;;
20138;SDS011;10230;51.502;10.800;2023-03-12T08:27:11;3.50;;;1.40;;
20138;SDS011;10230;51.502;10.800;2023-03-12T08:29:38;2.65;;;1.40;;
20138;SDS011;10230;51.502;10.800;2023-03-12T08:32:04;6.10;;;1.58;;
20138;SDS011;10230;51.502;10.800;2023-03-12T08:34:31;1.83;;;1.10;;
20138;SDS011;10230;51.502;10.800;2023-03-12T08:36:57;2.97;;;1.40;;
20138;SDS011;10230;51.502;10.800;2023-03-12T08:39:23;2.90;;;1.88;;
20138;SDS011;10230;51.502;10.800;2023-03-12T08:41:49;3.63;;;1.40;;
20138;SDS011;10230;51.502;10.800;2023-03-12T08:44:19;1.95;;;1.08;;
20138;SDS011;10230;51.502;10.800;2023-03-12T08:46:45;2.55;;;1.38;;
20138;SDS011;10230;51.502;10.800;2023-03-12T08:49:11;3.00;;;1.55;;
20138;SDS011;10230;51.502;10.800;2023-03-12T08:51:37;2.80;;;1.30;;
20138;SDS011;10230;51.502;10.800;2023-03-12T08:54:03;2.22;;;1.50;;
20138;SDS011;10230;51.502;10.800;2023-03-12T08:56:30;5.15;;;1.65;;
20138;SDS011;10230;51.502;10.800;2023-03-12T08:58:59;2.40;;;1.65;;
20138;SDS011;10230;51.502;10.800;2023-03-12T09:01:25;1.92;;;1.13;;
20138;SDS011;10230;51.502;10.800;2023-03-12T09:03:51;2.40;;;1.25;;
20138;SDS011;10230;51.502;10.800;2023-03-12T09:06:19;3.13;;;1.83;;
20138;SDS011;10230;51.502;10.800;2023-03-12T09:08:45;3.25;;;1.67;;
20138;SDS011;10230;51.502;10.800;2023-03-12T09:11:12;3.55;;;1.30;;
20138;SDS011;10230;51.502;10.800;2023-03-12T09:13:38;4.30;;;2.35;;
20138;SDS011;10230;51.502;10.800;2023-03-12T09:16:05;1.70;;;1.48;;
20138;SDS011;10230;51.502;10.800;2023-03-12T09:18:31;3.45;;;1.70;;
20138;SDS011;10230;51.502;10.800;2023-03-12T09:20:57;4.10;;;1.90;;
20138;SDS011;10230;51.502;10.800;2023-03-12T09:23:24;6.50;;;4.25;;
20138;SDS011;10230;51.502;10.800;2023-03-12T09:25:50;2.35;;;1.70;;
20138;SDS011;10230;51.502;10.800;2023-03-12T09:28:17;4.68;;;2.05;;
20138;SDS011;10230;51.502;10.800;2023-03-12T09:30:43;3.20;;;1.17;;
20138;SDS011;10230;51.502;10.800;2023-03-12T09:33:09;3.88;;;1.38;;
20138;SDS011;10230;51.502;10.800;2023-03-12T09:35:36;2.92;;;1.20;;
20138;SDS011;10230;51.502;10.800;2023-03-12T09:38:02;3.37;;;1.57;;
20138;SDS011;10230;51.502;10.800;2023-03-12T09:40:29;3.60;;;1.70;;
20138;SDS011;10230;51.502;10.800;2023-03-12T09:43:03;2.75;;;1.60;;
20138;SDS011;10230;51.502;10.800;2023-03-12T09:45:38;3.87;;;2.20;;
20138;SDS011;10230;51.502;10.800;2023-03-12T09:48:07;3.93;;;1.93;;
20138;SDS011;10230;51.502;10.800;2023-03-12T09:50:40;5.57;;;1.60;;
20138;SDS011;10230;51.502;10.800;2023-03-12T09:56:02;4.03;;;2.10;;
20138;SDS011;10230;51.502;10.800;2023-03-12T09:58:35;2.70;;;2.00;;
20138;SDS011;10230;51.502;10.800;2023-03-12T10:08:37;3.23;;;1.60;;
20138;SDS011;10230;51.502;10.800;2023-03-12T10:23:12;3.43;;;2.00;;
20138;SDS011;10230;51.502;10.800;2023-03-12T10:25:21;3.50;;;1.67;;
20138;SDS011;10230;51.502;10.800;2023-03-12T10:27:51;3.90;;;1.07;;
20138;SDS011;10230;51.502;10.800;2023-03-12T10:30:22;2.10;;;1.00;;
20138;SDS011;10230;51.502;10.800;2023-03-12T10:32:50;4.83;;;1.70;;
20138;SDS011;10230;51.502;10.800;2023-03-12T10:35:21;2.53;;;1.10;;
20138;SDS011;10230;51.502;10.800;2023-03-12T10:37:49;3.17;;;1.77;;
20138;SDS011;10230;51.502;10.800;2023-03-12T10:40:23;3.63;;;1.63;;
20138;SDS011;10230;51.502;10.800;2023-03-12T10:42:54;3.53;;;1.20;;
20138;SDS011;10230;51.502;10.800;2023-03-12T10:48:05;2.87;;;1.63;;
20138;SDS011;10230;51.502;10.800;2023-03-12T10:50:34;9.80;;;5.03;;
20138;SDS011;10230;51.502;10.800;2023-03-12T10:53:12;4.50;;;1.80;;
20138;SDS011;10230;51.502;10.800;2023-03-12T10:55:43;3.70;;;1.40;;
20138;SDS011;10230;51.502;10.800;2023-03-12T10:58:46;2.20;;;1.17;;
20138;SDS011;10230;51.502;10.800;2023-03-12T11:01:23;5.00;;;1.70;;
20138;SDS011;10230;51.502;10.800;2023-03-12T11:03:51;3.63;;;1.77;;
20138;SDS011;10230;51.502;10.800;2023-03-12T11:06:22;5.13;;;1.40;;
20138;SDS011;10230;51.502;10.800;2023-03-12T11:11:46;2.07;;;1.10;;
20138;SDS011;10230;51.502;10.800;2023-03-12T11:14:20;3.70;;;2.27;;
20138;SDS011;10230;51.502;10.800;2023-03-12T11:16:47;4.37;;;1.40;;
20138;SDS011;10230;51.502;10.800;2023-03-12T11:19:25;3.17;;;1.20;;
20138;SDS011;10230;51.502;10.800;2023-03-12T11:22:01;4.10;;;1.10;;
20138;SDS011;10230;51.502;10.800;2023-03-12T11:24:29;2.37;;;1.20;;
20138;SDS011;10230;51.502;10.800;2023-03-12T11:32:16;2.40;;;1.10;;
20138;SDS011;10230;51.502;10.800;2023-03-12T11:34:43;6.13;;;1.50;;
20138;SDS011;10230;51.502;10.800;2023-03-12T11:37:58;3.23;;;1.07;;
20138;SDS011;10230;51.502;10.800;2023-03-12T11:40:06;2.03;;;1.20;;
20138;SDS011;10230;51.502;10.800;2023-03-12T11:48:24;2.87;;;1.30;;
20138;SDS011;10230;51.502;10.800;2023-03-12T11:56:39;3.00;;;1.40;;
20138;SDS011;10230;51.502;10.800;2023-03-12T12:02:13;3.67;;;1.90;;
20138;SDS011;10230;51.502;10.800;2023-03-12T12:24:08;5.43;;;2.00;;
20138;SDS011;10230;51.502;10.800;2023-03-12T12:26:45;5.93;;;2.50;;
20138;SDS011;10230;51.502;10.800;2023-03-12T12:32:12;4.23;;;2.37;;
20138;SDS011;10230;51.502;10.800;2023-03-12T12:40:20;5.20;;;2.00;;
20138;SDS011;10230;51.502;10.800;2023-03-12T12:43:45;6.33;;;1.53;;
20138;SDS011;10230;51.502;10.800;2023-03-12T12:45:49;4.57;;;1.97;;
20138;SDS011;10230;51.502;10.800;2023-03-12T12:49:00;5.43;;;2.33;;
20138;SDS011;10230;51.502;10.800;2023-03-12T12:51:08;3.57;;;2.27;;
20138;SDS011;10230;51.502;10.800;2023-03-12T12:53:37;3.60;;;1.90;;
20138;SDS011;10230;51.502;10.800;2023-03-12T13:02:13;2.10;;;1.60;;
20138;SDS011;10230;51.502;10.800;2023-03-12T13:05:01;3.17;;;2.10;;
20138;SDS011;10230;51.502;10.800;2023-03-12T13:07:28;3.87;;;1.70;;
20138;SDS011;10230;51.502;10.800;2023-03-12T13:09:56;2.57;;;1.53;;
20138;SDS011;10230;51.502;10.800;2023-03-12T13:15:32;3.97;;;2.37;;
20138;SDS011;10230;51.502;10.800;2023-03-12T13:23:30;8.13;;;2.47;;
20138;SDS011;10230;51.502;10.800;2023-03-12T13:26:07;5.70;;;2.63;;
20138;SDS011;10230;51.502;10.800;2023-03-12T13:33:56;2.87;;;2.07;;
20138;SDS011;10230;51.502;10.800;2023-03-12T13:36:24;6.73;;;2.00;;
20138;SDS011;10230;51.502;10.800;2023-03-12T13:41:37;3.93;;;1.83;;
20138;SDS011;10230;51.502;10.800;2023-03-12T13:52:32;3.60;;;2.07;;
20138;SDS011;10230;51.502;10.800;2023-03-12T13:55:01;4.20;;;2.30;;
20138;SDS011;10230;51.502;10.800;2023-03-12T14:00:03;2.87;;;1.60;;
20138;SDS011;10230;51.502;10.800;2023-03-12T14:02:34;2.83;;;1.80;;
20138;SDS011;10230;51.502;10.800;2023-03-12T14:05:07;2.67;;;1.77;;
20138;SDS011;10230;51.502;10.800;2023-03-12T14:10:52;3.33;;;1.80;;
20138;SDS011;10230;51.502;10.800;2023-03-12T14:15:57;3.90;;;2.00;;
20138;SDS011;10230;51.502;10.800;2023-03-12T14:18:32;3.07;;;1.87;;
20138;SDS011;10230;51.502;10.800;2023-03-12T14:21:00;4.63;;;2.23;;
20138;SDS011;10230;51.502;10.800;2023-03-12T14:23:33;1.63;;;1.50;;
20138;SDS011;10230;51.502;10.800;2023-03-12T14:26:02;3.67;;;1.97;;
20138;SDS011;10230;51.502;10.800;2023-03-12T14:28:30;2.87;;;1.70;;
20138;SDS011;10230;51.502;10.800;2023-03-12T14:31:08;6.60;;;2.07;;
20138;SDS011;10230;51.502;10.800;2023-03-12T14:33:46;3.87;;;1.90;;
20138;SDS011;10230;51.502;10.800;2023-03-12T14:36:17;9.13;;;3.43;;
20138;SDS011;10230;51.502;10.800;2023-03-12T14:38:46;2.07;;;1.67;;
20138;SDS011;10230;51.502;10.800;2023-03-12T14:41:23;3.93;;;1.60;;
20138;SDS011;10230;51.502;10.800;2023-03-12T14:43:53;3.80;;;2.10;;
20138;SDS011;10230;51.502;10.800;2023-03-12T14:46:54;5.07;;;2.57;;
20138;SDS011;10230;51.502;10.800;2023-03-12T14:49:24;5.10;;;2.97;;
20138;SDS011;10230;51.502;10.800;2023-03-12T14:51:50;3.93;;;2.20;;
20138;SDS011;10230;51.502;10.800;2023-03-12T14:54:17;2.63;;;1.97;;
20138;SDS011;10230;51.502;10.800;2023-03-12T14:56:43;2.97;;;2.17;;
20138;SDS011;10230;51.502;10.800;2023-03-12T14:59:43;2.23;;;1.67;;
20138;SDS011;10230;51.502;10.800;2023-03-12T15:02:06;2.60;;;1.90;;
20138;SDS011;10230;51.502;10.800;2023-03-12T15:04:37;8.20;;;4.30;;
20138;SDS011;10230;51.502;10.800;2023-03-12T15:07:04;5.07;;;2.83;;
20138;SDS011;10230;51.502;10.800;2023-03-12T15:09:34;7.10;;;4.27;;
20138;SDS011;10230;51.502;10.800;2023-03-12T15:12:06;4.33;;;3.07;;
20138;SDS011;10230;51.502;10.800;2023-03-12T15:14:41;2.20;;;1.97;;
20138;SDS011;10230;51.502;10.800;2023-03-12T15:17:07;5.13;;;2.40;;
20138;SDS011;10230;51.502;10.800;2023-03-12T15:19:42;2.80;;;2.17;;
20138;SDS011;10230;51.502;10.800;2023-03-12T15:22:09;2.63;;;1.73;;
20138;SDS011;10230;51.502;10.800;2023-03-12T15:24:40;2.77;;;2.00;;
20138;SDS011;10230;51.502;10.800;2023-03-12T15:29:53;4.33;;;2.87;;
20138;SDS011;10230;51.502;10.800;2023-03-12T15:32:21;5.77;;;2.87;;
20138;SDS011;10230;51.502;10.800;2023-03-12T15:34:51;4.27;;;2.80;;
20138;SDS011;10230;51.502;10.800;2023-03-12T15:37:20;7.27;;;3.10;;
20138;SDS011;10230;51.502;10.800;2023-03-12T15:40:04;3.90;;;2.70;;
20138;SDS011;10230;51.502;10.800;2023-03-12T15:42:47;18.70;;;10.10;;
20138;SDS011;10230;51.502;10.800;2023-03-12T15:45:23;5.37;;;4.27;;
20138;SDS011;10230;51.502;10.800;2023-03-12T15:47:52;5.03;;;3.03;;
20138;SDS011;10230;51.502;10.800;2023-03-12T15:50:39;4.27;;;3.50;;
20138;SDS011;10230;51.502;10.800;2023-03-12T15:55:35;6.30;;;4.07;;
20138;SDS011;10230;51.502;10.800;2023-03-12T15:58:02;4.50;;;3.40;;
20138;SDS011;10230;51.502;10.800;2023-03-12T16:00:47;3.87;;;2.80;;
20138;SDS011;10230;51.502;10.800;2023-03-12T16:03:17;6.47;;;4.37;;
20138;SDS011;10230;51.502;10.800;2023-03-12T16:05:44;6.80;;;4.17;;
20138;SDS011;10230;51.502;10.800;2023-03-12T16:10:47;6.30;;;3.63;;
20138;SDS011;10230;51.502;10.800;2023-03-12T16:13:18;3.50;;;2.67;;
20138;SDS011;10230;51.502;10.800;2023-03-12T16:15:45;4.83;;;3.37;;
20138;SDS011;10230;51.502;10.800;2023-03-12T16:18:15;5.43;;;3.50;;
20138;SDS011;10230;51.502;10.800;2023-03-12T16:20:42;4.80;;;2.87;;
20138;SDS011;10230;51.502;10.800;2023-03-12T16:23:09;5.00;;;3.27;;
20138;SDS011;10230;51.502;10.800;2023-03-12T16:25:35;3.97;;;3.10;;
20138;SDS011;10230;51.502;10.800;2023-03-12T16:28:03;5.30;;;3.37;;
20138;SDS011;10230;51.502;10.800;2023-03-12T16:30:31;4.63;;;3.47;;
20138;SDS011;10230;51.502;10.800;2023-03-12T16:32:59;7.70;;;4.10;;
20138;SDS011;10230;51.502;10.800;2023-03-12T16:35:26;6.47;;;4.10;;
20138;SDS011;10230;51.502;10.800;2023-03-12T16:37:55;9.07;;;4.60;;
20138;SDS011;10230;51.502;10.800;2023-03-12T16:40:21;4.90;;;4.00;;
20138;SDS011;10230;51.502;10.800;2023-03-12T16:42:48;8.77;;;4.53;;
20138;SDS011;10230;51.502;10.800;2023-03-12T16:45:15;4.90;;;3.87;;
20138;SDS011;10230;51.502;10.800;2023-03-12T16:47:42;6.90;;;4.57;;